sensor_id;sensor_type;location;lat;lon;timestamp;P1;durP1;ratioP1;P2;durP2;ratioP2
29432;SDS011;16405;53.964;13.448;2022-08-05T07:15:56;47.93;;;19.40;;
29432;SDS011;16405;53.964;13.448;2022-08-05T07:18:41;35.63;;;16.63;;
29432;SDS011;16405;53.964;13.448;2022-08-05T07:23:33;40.30;;;17.25;;
29432;SDS011;16405;53.964;13.448;2022-08-05T07:25:59;45.47;;;17.30;;
29432;SDS011;16405;53.964;13.448;2022-08-05T07:28:25;40.08;;;17.45;;
29432;SDS011;16405;53.964;13.448;2022-08-05T07:30:51;39.38;;;16.33;;
29432;SDS011;16405;53.964;13.448;2022-08-05T07:33:17;38.30;;;17.17;;
29432;SDS011;16405;53.964;13.448;2022-08-05T07:35:45;41.47;;;18.70;;
29432;SDS011;16405;53.964;13.448;2022-08-05T07:38:11;35.60;;;16.70;;
29432;SDS011;16405;53.964;13.448;2022-08-05T07:40:41;37.50;;;16.42;;
29432;SDS011;16405;53.964;13.448;2022-08-05T07:43:08;37.72;;;16.73;;
29432;SDS011;16405;53.964;13.448;2022-08-05T07:45:35;34.50;;;13.25;;
29432;SDS011;16405;53.964;13.448;2022-08-05T07:48:00;28.35;;;13.23;;
29432;SDS011;16405;53.964;13.448;2022-08-05T07:52:52;29.17;;;13.25;;
29432;SDS011;16405;53.964;13.448;2022-08-05T07:55:18;29.38;;;13.45;;
29432;SDS011;16405;53.964;13.448;2022-08-05T07:57:44;30.17;;;13.85;;
29432;SDS011;16405;53.964;13.448;2022-08-05T08:02:38;27.15;;;13.45;;
29432;SDS011;16405;53.964;13.448;2022-08-05T08:05:04;34.58;;;12.80;;
29432;SDS011;16405;53.964;13.448;2022-08-05T08:07:30;44.38;;;14.95;;
29432;SDS011;16405;53.964;13.448;2022-08-05T08:09:57;37.13;;;14.00;;
29432;SDS011;16405;53.964;13.448;2022-08-05T08:12:25;31.70;;;12.82;;
29432;SDS011;16405;53.964;13.448;2022-08-05T08:14:51;28.23;;;12.15;;
29432;SDS011;16405;53.964;13.448;2022-08-05T08:17:17;23.10;;;12.20;;
29432;SDS011;16405;53.964;13.448;2022-08-05T08:19:44;23.75;;;11.25;;
29432;SDS011;16405;53.964;13.448;2022-08-05T08:22:10;29.17;;;12.50;;
29432;SDS011;16405;53.964;13.448;2022-08-05T08:24:36;33.45;;;12.52;;
29432;SDS011;16405;53.964;13.448;2022-08-05T08:27:04;30.88;;;14.82;;
29432;SDS011;16405;53.964;13.448;2022-08-05T08:29:31;34.00;;;16.88;;
29432;SDS011;16405;53.964;13.448;2022-08-05T08:31:57;31.73;;;15.35;;
29432;SDS011;16405;53.964;13.448;2022-08-05T08:36:50;37.30;;;15.10;;
29432;SDS011;16405;53.964;13.448;2022-08-05T08:39:16;29.65;;;13.77;;
29432;SDS011;16405;53.964;13.448;2022-08-05T08:41:43;33.65;;;15.82;;
29432;SDS011;16405;53.964;13.448;2022-08-05T08:44:12;35.83;;;16.45;;
29432;SDS011;16405;53.964;13.448;2022-08-05T08:46:43;37.47;;;16.15;;
29432;SDS011;16405;53.964;13.448;2022-08-05T08:49:12;31.08;;;14.50;;
29432;SDS011;16405;53.964;13.448;2022-08-05T08:51:40;29.80;;;15.07;;
29432;SDS011;16405;53.964;13.448;2022-08-05T08:54:10;29.60;;;13.52;;
29432;SDS011;16405;53.964;13.448;2022-08-05T08:56:40;36.40;;;16.15;;
29432;SDS011;16405;53.964;13.448;2022-08-05T08:59:06;28.55;;;14.75;;
29432;SDS011;16405;53.964;13.448;2022-08-05T09:01:32;29.48;;;15.50;;
29432;SDS011;16405;53.964;13.448;2022-08-05T09:03:59;28.23;;;13.45;;
29432;SDS011;16405;53.964;13.448;2022-08-05T09:06:27;28.27;;;14.05;;
29432;SDS011;16405;53.964;13.448;2022-08-05T09:08:57;28.25;;;13.57;;
29432;SDS011;16405;53.964;13.448;2022-08-05T09:11:25;21.42;;;12.30;;
29432;SDS011;16405;53.964;13.448;2022-08-05T09:13:52;28.98;;;12.75;;
29432;SDS011;16405;53.964;13.448;2022-08-05T09:16:20;28.30;;;14.05;;
29432;SDS011;16405;53.964;13.448;2022-08-05T09:18:46;25.60;;;12.73;;
29432;SDS011;16405;53.964;13.448;2022-08-05T09:21:13;31.15;;;12.77;;
29432;SDS011;16405;53.964;13.448;2022-08-05T09:23:39;24.77;;;11.65;;
29432;SDS011;16405;53.964;13.448;2022-08-05T09:28:40;24.52;;;12.65;;
29432;SDS011;16405;53.964;13.448;2022-08-05T09:31:09;21.45;;;11.43;;
29432;SDS011;16405;53.964;13.448;2022-08-05T09:33:48;25.92;;;11.45;;
29432;SDS011;16405;53.964;13.448;2022-08-05T09:36:17;23.65;;;11.50;;
29432;SDS011;16405;53.964;13.448;2022-08-05T09:38:56;22.60;;;11.00;;
29432;SDS011;16405;53.964;13.448;2022-08-05T09:41:28;22.00;;;9.75;;
29432;SDS011;16405;53.964;13.448;2022-08-05T09:43:58;19.60;;;9.43;;
29432;SDS011;16405;53.964;13.448;2022-08-05T09:46:28;17.92;;;8.02;;
29432;SDS011;16405;53.964;13.448;2022-08-05T09:49:00;18.25;;;8.07;;
29432;SDS011;16405;53.964;13.448;2022-08-05T09:51:33;13.40;;;8.45;;
29432;SDS011;16405;53.964;13.448;2022-08-05T09:54:06;20.27;;;8.23;;
29432;SDS011;16405;53.964;13.448;2022-08-05T09:56:36;18.77;;;8.70;;
29432;SDS011;16405;53.964;13.448;2022-08-05T09:59:04;17.33;;;7.65;;
29432;SDS011;16405;53.964;13.448;2022-08-05T10:01:40;16.60;;;8.20;;
29432;SDS011;16405;53.964;13.448;2022-08-05T10:04:12;15.68;;;7.32;;
29432;SDS011;16405;53.964;13.448;2022-08-05T10:06:39;17.10;;;8.32;;
29432;SDS011;16405;53.964;13.448;2022-08-05T10:09:20;16.83;;;8.10;;
29432;SDS011;16405;53.964;13.448;2022-08-05T10:11:50;14.68;;;7.43;;
29432;SDS011;16405;53.964;13.448;2022-08-05T10:16:56;17.88;;;7.88;;
29432;SDS011;16405;53.964;13.448;2022-08-05T10:19:40;19.35;;;7.95;;
29432;SDS011;16405;53.964;13.448;2022-08-05T10:22:07;20.58;;;8.23;;
29432;SDS011;16405;53.964;13.448;2022-08-05T10:24:36;18.55;;;8.48;;
29432;SDS011;16405;53.964;13.448;2022-08-05T10:27:05;21.10;;;7.10;;
29432;SDS011;16405;53.964;13.448;2022-08-05T10:29:35;16.75;;;7.43;;
29432;SDS011;16405;53.964;13.448;2022-08-05T10:32:01;15.18;;;7.18;;
29432;SDS011;16405;53.964;13.448;2022-08-05T10:34:31;19.90;;;8.00;;
29432;SDS011;16405;53.964;13.448;2022-08-05T10:37:00;18.65;;;9.82;;
29432;SDS011;16405;53.964;13.448;2022-08-05T10:39:29;19.55;;;9.35;;
29432;SDS011;16405;53.964;13.448;2022-08-05T10:44:49;17.63;;;9.00;;
29432;SDS011;16405;53.964;13.448;2022-08-05T10:47:18;20.40;;;7.32;;
29432;SDS011;16405;53.964;13.448;2022-08-05T10:50:00;18.80;;;9.02;;
29432;SDS011;16405;53.964;13.448;2022-08-05T10:55:07;17.30;;;9.15;;
29432;SDS011;16405;53.964;13.448;2022-08-05T10:57:38;16.88;;;9.20;;
29432;SDS011;16405;53.964;13.448;2022-08-05T11:03:07;20.35;;;8.13;;
29432;SDS011;16405;53.964;13.448;2022-08-05T11:05:35;15.90;;;8.10;;
29432;SDS011;16405;53.964;13.448;2022-08-05T11:08:05;17.80;;;9.23;;
29432;SDS011;16405;53.964;13.448;2022-08-05T11:10:35;12.98;;;7.57;;
29432;SDS011;16405;53.964;13.448;2022-08-05T11:13:07;18.02;;;8.90;;
29432;SDS011;16405;53.964;13.448;2022-08-05T11:15:37;16.42;;;8.10;;
29432;SDS011;16405;53.964;13.448;2022-08-05T11:20:58;14.05;;;8.10;;
29432;SDS011;16405;53.964;13.448;2022-08-05T11:26:20;18.02;;;7.78;;
29432;SDS011;16405;53.964;13.448;2022-08-05T11:28:49;15.70;;;7.50;;
29432;SDS011;16405;53.964;13.448;2022-08-05T11:33:59;13.73;;;6.20;;
29432;SDS011;16405;53.964;13.448;2022-08-05T11:36:44;13.02;;;6.15;;
29432;SDS011;16405;53.964;13.448;2022-08-05T11:42:23;12.10;;;5.97;;
29432;SDS011;16405;53.964;13.448;2022-08-05T11:44:50;10.70;;;6.00;;
29432;SDS011;16405;53.964;13.448;2022-08-05T11:47:22;12.27;;;5.88;;
29432;SDS011;16405;53.964;13.448;2022-08-05T11:49:53;19.10;;;6.43;;
29432;SDS011;16405;53.964;13.448;2022-08-05T11:52:27;11.88;;;5.75;;
29432;SDS011;16405;53.964;13.448;2022-08-05T11:54:53;10.20;;;5.18;;
29432;SDS011;16405;53.964;13.448;2022-08-05T11:57:20;14.00;;;5.68;;
29432;SDS011;16405;53.964;13.448;2022-08-05T11:59:53;12.65;;;5.40;;
29432;SDS011;16405;53.964;13.448;2022-08-05T12:02:26;10.27;;;4.80;;
29432;SDS011;16405;53.964;13.448;2022-08-05T12:04:57;11.65;;;4.90;;
29432;SDS011;16405;53.964;13.448;2022-08-05T12:07:31;10.40;;;4.93;;
29432;SDS011;16405;53.964;13.448;2022-08-05T12:09:58;9.80;;;4.97;;
29432;SDS011;16405;53.964;13.448;2022-08-05T12:12:26;12.55;;;5.07;;
29432;SDS011;16405;53.964;13.448;2022-08-05T12:14:53;11.60;;;5.13;;
29432;SDS011;16405;53.964;13.448;2022-08-05T12:17:20;11.57;;;5.47;;
29432;SDS011;16405;53.964;13.448;2022-08-05T12:19:49;9.40;;;4.68;;
29432;SDS011;16405;53.964;13.448;2022-08-05T12:22:19;11.63;;;5.38;;
29432;SDS011;16405;53.964;13.448;2022-08-05T12:24:50;9.82;;;4.53;;
29432;SDS011;16405;53.964;13.448;2022-08-05T12:27:27;10.15;;;4.13;;
29432;SDS011;16405;53.964;13.448;2022-08-05T12:32:33;7.22;;;3.92;;
29432;SDS011;16405;53.964;13.448;2022-08-05T12:35:07;9.63;;;3.92;;
29432;SDS011;16405;53.964;13.448;2022-08-05T12:37:35;12.30;;;3.90;;
29432;SDS011;16405;53.964;13.448;2022-08-05T12:40:01;13.00;;;4.18;;
29432;SDS011;16405;53.964;13.448;2022-08-05T12:42:34;35.35;;;13.18;;
29432;SDS011;16405;53.964;13.448;2022-08-05T12:45:07;20.42;;;8.25;;
29432;SDS011;16405;53.964;13.448;2022-08-05T12:47:34;13.98;;;4.70;;
29432;SDS011;16405;53.964;13.448;2022-08-05T12:50:14;14.02;;;4.15;;
29432;SDS011;16405;53.964;13.448;2022-08-05T12:52:41;15.38;;;5.22;;
29432;SDS011;16405;53.964;13.448;2022-08-05T12:55:20;10.25;;;5.93;;
29432;SDS011;16405;53.964;13.448;2022-08-05T12:57:48;9.40;;;4.97;;
29432;SDS011;16405;53.964;13.448;2022-08-05T13:00:20;10.95;;;5.38;;
29432;SDS011;16405;53.964;13.448;2022-08-05T13:02:53;13.55;;;5.82;;
29432;SDS011;16405;53.964;13.448;2022-08-05T13:05:20;9.60;;;5.57;;
29432;SDS011;16405;53.964;13.448;2022-08-05T13:07:47;13.02;;;6.57;;
29432;SDS011;16405;53.964;13.448;2022-08-05T13:10:13;16.35;;;7.63;;
29432;SDS011;16405;53.964;13.448;2022-08-05T13:12:41;16.45;;;7.25;;
29432;SDS011;16405;53.964;13.448;2022-08-05T13:15:10;13.60;;;6.75;;
29432;SDS011;16405;53.964;13.448;2022-08-05T13:17:38;14.68;;;5.75;;
29432;SDS011;16405;53.964;13.448;2022-08-05T13:22:46;16.75;;;6.80;;
29432;SDS011;16405;53.964;13.448;2022-08-05T13:25:15;15.30;;;6.35;;
29432;SDS011;16405;53.964;13.448;2022-08-05T13:27:46;11.00;;;5.70;;
29432;SDS011;16405;53.964;13.448;2022-08-05T13:30:15;6.95;;;4.70;;
29432;SDS011;16405;53.964;13.448;2022-08-05T13:32:43;12.20;;;6.00;;
29432;SDS011;16405;53.964;13.448;2022-08-05T13:35:13;11.80;;;6.10;;
29432;SDS011;16405;53.964;13.448;2022-08-05T13:37:42;12.85;;;6.75;;
29432;SDS011;16405;53.964;13.448;2022-08-05T13:40:09;15.63;;;8.80;;
29432;SDS011;16405;53.964;13.448;2022-08-05T13:42:36;15.88;;;8.57;;
29432;SDS011;16405;53.964;13.448;2022-08-05T13:45:03;16.35;;;9.18;;
29432;SDS011;16405;53.964;13.448;2022-08-05T13:47:31;16.65;;;9.15;;
29432;SDS011;16405;53.964;13.448;2022-08-05T13:50:03;18.30;;;10.48;;
29432;SDS011;16405;53.964;13.448;2022-08-05T13:52:30;22.95;;;10.98;;
29432;SDS011;16405;53.964;13.448;2022-08-05T13:54:56;15.98;;;8.05;;
29432;SDS011;16405;53.964;13.448;2022-08-05T13:57:23;17.83;;;9.77;;
29432;SDS011;16405;53.964;13.448;2022-08-05T13:59:49;20.75;;;10.27;;
29432;SDS011;16405;53.964;13.448;2022-08-05T14:02:17;16.80;;;10.07;;
29432;SDS011;16405;53.964;13.448;2022-08-05T14:04:44;19.65;;;9.88;;
29432;SDS011;16405;53.964;13.448;2022-08-05T14:07:34;13.77;;;7.63;;
29432;SDS011;16405;53.964;13.448;2022-08-05T14:10:09;15.15;;;8.85;;
29432;SDS011;16405;53.964;13.448;2022-08-05T14:12:40;17.17;;;7.32;;
29432;SDS011;16405;53.964;13.448;2022-08-05T14:15:06;16.90;;;8.07;;
29432;SDS011;16405;53.964;13.448;2022-08-05T14:17:34;18.75;;;8.25;;
29432;SDS011;16405;53.964;13.448;2022-08-05T14:19:59;20.00;;;10.07;;
29432;SDS011;16405;53.964;13.448;2022-08-05T14:22:25;18.08;;;8.98;;
29432;SDS011;16405;53.964;13.448;2022-08-05T14:24:51;13.80;;;8.18;;
29432;SDS011;16405;53.964;13.448;2022-08-05T14:27:17;11.05;;;6.90;;
29432;SDS011;16405;53.964;13.448;2022-08-05T14:32:09;13.18;;;8.10;;
29432;SDS011;16405;53.964;13.448;2022-08-05T14:34:34;9.38;;;5.75;;
29432;SDS011;16405;53.964;13.448;2022-08-05T14:37:00;7.35;;;4.57;;
29432;SDS011;16405;53.964;13.448;2022-08-05T14:39:28;6.05;;;4.20;;
29432;SDS011;16405;53.964;13.448;2022-08-05T14:41:54;4.20;;;2.90;;
29432;SDS011;16405;53.964;13.448;2022-08-05T14:44:22;6.55;;;3.83;;
29432;SDS011;16405;53.964;13.448;2022-08-05T14:46:48;9.43;;;3.72;;
29432;SDS011;16405;53.964;13.448;2022-08-05T14:51:40;7.13;;;3.63;;
29432;SDS011;16405;53.964;13.448;2022-08-05T14:54:06;7.50;;;3.80;;
29432;SDS011;16405;53.964;13.448;2022-08-05T14:56:32;5.93;;;4.60;;
29432;SDS011;16405;53.964;13.448;2022-08-05T14:58:59;8.30;;;5.57;;
29432;SDS011;16405;53.964;13.448;2022-08-05T15:01:25;12.20;;;5.95;;
29432;SDS011;16405;53.964;13.448;2022-08-05T15:03:52;11.32;;;6.25;;
29432;SDS011;16405;53.964;13.448;2022-08-05T15:06:18;12.90;;;5.45;;
29432;SDS011;16405;53.964;13.448;2022-08-05T15:08:44;7.25;;;3.50;;
29432;SDS011;16405;53.964;13.448;2022-08-05T15:11:10;9.32;;;4.30;;
29432;SDS011;16405;53.964;13.448;2022-08-05T15:13:36;9.73;;;4.65;;
29432;SDS011;16405;53.964;13.448;2022-08-05T15:18:28;7.07;;;4.37;;
29432;SDS011;16405;53.964;13.448;2022-08-05T15:23:20;12.23;;;5.65;;
29432;SDS011;16405;53.964;13.448;2022-08-05T15:25:46;8.30;;;4.30;;
29432;SDS011;16405;53.964;13.448;2022-08-05T15:28:12;9.40;;;4.00;;
29432;SDS011;16405;53.964;13.448;2022-08-05T15:30:39;6.93;;;3.40;;
29432;SDS011;16405;53.964;13.448;2022-08-05T15:33:08;6.22;;;2.83;;
29432;SDS011;16405;53.964;13.448;2022-08-05T15:35:37;4.15;;;2.10;;
29432;SDS011;16405;53.964;13.448;2022-08-05T15:38:03;6.07;;;2.35;;
29432;SDS011;16405;53.964;13.448;2022-08-05T15:40:29;7.72;;;3.03;;
29432;SDS011;16405;53.964;13.448;2022-08-05T15:42:55;8.00;;;2.60;;
29432;SDS011;16405;53.964;13.448;2022-08-05T15:47:46;9.80;;;2.83;;
29432;SDS011;16405;53.964;13.448;2022-08-05T15:50:17;4.65;;;1.95;;
29432;SDS011;16405;53.964;13.448;2022-08-05T15:52:43;6.60;;;1.60;;
29432;SDS011;16405;53.964;13.448;2022-08-05T15:57:37;4.93;;;2.20;;
29432;SDS011;16405;53.964;13.448;2022-08-05T16:00:10;7.93;;;2.22;;
29432;SDS011;16405;53.964;13.448;2022-08-05T16:02:36;7.70;;;2.35;;
29432;SDS011;16405;53.964;13.448;2022-08-05T16:05:02;7.28;;;2.33;;
29432;SDS011;16405;53.964;13.448;2022-08-05T16:07:29;7.13;;;2.20;;
29432;SDS011;16405;53.964;13.448;2022-08-05T16:09:56;4.97;;;2.25;;
29432;SDS011;16405;53.964;13.448;2022-08-05T16:12:22;6.30;;;2.17;;
29432;SDS011;16405;53.964;13.448;2022-08-05T16:14:50;5.40;;;2.13;;
29432;SDS011;16405;53.964;13.448;2022-08-05T16:17:16;6.63;;;2.20;;
29432;SDS011;16405;53.964;13.448;2022-08-05T16:19:42;5.60;;;2.05;;
29432;SDS011;16405;53.964;13.448;2022-08-05T16:22:07;8.82;;;2.50;;
29432;SDS011;16405;53.964;13.448;2022-08-05T16:27:04;7.22;;;2.10;;
29432;SDS011;16405;53.964;13.448;2022-08-05T16:29:30;8.40;;;2.20;;
29432;SDS011;16405;53.964;13.448;2022-08-05T16:31:56;6.70;;;2.10;;
29432;SDS011;16405;53.964;13.448;2022-08-05T16:34:23;5.65;;;1.60;;
29432;SDS011;16405;53.964;13.448;2022-08-05T16:36:50;13.30;;;2.05;;
29432;SDS011;16405;53.964;13.448;2022-08-05T16:39:17;6.80;;;2.08;;
29432;SDS011;16405;53.964;13.448;2022-08-05T16:41:46;5.38;;;1.80;;
29432;SDS011;16405;53.964;13.448;2022-08-05T16:44:13;3.90;;;1.95;;
29432;SDS011;16405;53.964;13.448;2022-08-05T16:46:41;7.78;;;2.00;;
29432;SDS011;16405;53.964;13.448;2022-08-05T16:49:15;3.95;;;1.63;;
29432;SDS011;16405;53.964;13.448;2022-08-05T16:51:41;9.20;;;1.55;;
29432;SDS011;16405;53.964;13.448;2022-08-05T16:54:07;3.53;;;1.55;;
29432;SDS011;16405;53.964;13.448;2022-08-05T16:59:07;6.05;;;1.50;;
29432;SDS011;16405;53.964;13.448;2022-08-05T17:01:35;5.97;;;1.40;;
29432;SDS011;16405;53.964;13.448;2022-08-05T17:04:02;8.68;;;1.65;;
29432;SDS011;16405;53.964;13.448;2022-08-05T17:06:37;5.63;;;1.92;;
29432;SDS011;16405;53.964;13.448;2022-08-05T17:09:03;9.38;;;2.05;;
29432;SDS011;16405;53.964;13.448;2022-08-05T17:13:57;5.13;;;2.08;;
29432;SDS011;16405;53.964;13.448;2022-08-05T17:16:26;11.88;;;2.20;;
29432;SDS011;16405;53.964;13.448;2022-08-05T17:18:52;4.43;;;1.73;;
29432;SDS011;16405;53.964;13.448;2022-08-05T17:23:44;11.23;;;1.90;;
29432;SDS011;16405;53.964;13.448;2022-08-05T17:28:40;9.68;;;2.00;;
29432;SDS011;16405;53.964;13.448;2022-08-05T17:31:06;7.10;;;1.73;;
29432;SDS011;16405;53.964;13.448;2022-08-05T17:35:57;5.95;;;1.20;;
29432;SDS011;16405;53.964;13.448;2022-08-05T17:38:23;7.53;;;1.25;;
29432;SDS011;16405;53.964;13.448;2022-08-05T17:43:15;6.38;;;1.20;;
29432;SDS011;16405;53.964;13.448;2022-08-05T17:45:43;6.35;;;1.20;;
29432;SDS011;16405;53.964;13.448;2022-08-05T17:48:09;5.95;;;1.10;;
29432;SDS011;16405;53.964;13.448;2022-08-05T17:53:04;4.68;;;1.33;;
29432;SDS011;16405;53.964;13.448;2022-08-05T17:55:30;6.20;;;1.20;;
29432;SDS011;16405;53.964;13.448;2022-08-05T17:58:08;3.40;;;1.20;;
29432;SDS011;16405;53.964;13.448;2022-08-05T18:00:44;5.18;;;1.02;;
29432;SDS011;16405;53.964;13.448;2022-08-05T18:03:14;5.20;;;1.20;;
29432;SDS011;16405;53.964;13.448;2022-08-05T18:05:46;5.97;;;1.37;;
29432;SDS011;16405;53.964;13.448;2022-08-05T18:10:38;5.03;;;1.27;;
29432;SDS011;16405;53.964;13.448;2022-08-05T18:15:30;4.25;;;1.45;;
29432;SDS011;16405;53.964;13.448;2022-08-05T18:18:01;6.32;;;1.40;;
29432;SDS011;16405;53.964;13.448;2022-08-05T18:20:27;7.47;;;1.30;;
29432;SDS011;16405;53.964;13.448;2022-08-05T18:22:54;8.43;;;1.52;;
29432;SDS011;16405;53.964;13.448;2022-08-05T18:25:20;6.13;;;1.42;;
29432;SDS011;16405;53.964;13.448;2022-08-05T18:30:12;12.15;;;1.92;;
29432;SDS011;16405;53.964;13.448;2022-08-05T18:32:40;5.63;;;1.42;;
29432;SDS011;16405;53.964;13.448;2022-08-05T18:35:06;8.77;;;2.10;;
29432;SDS011;16405;53.964;13.448;2022-08-05T18:39:58;7.13;;;1.50;;
29432;SDS011;16405;53.964;13.448;2022-08-05T18:44:50;7.07;;;1.55;;
29432;SDS011;16405;53.964;13.448;2022-08-05T18:47:21;21.75;;;1.73;;
29432;SDS011;16405;53.964;13.448;2022-08-05T18:49:47;16.88;;;1.90;;
29432;SDS011;16405;53.964;13.448;2022-08-05T18:52:32;11.48;;;2.28;;
29432;SDS011;16405;53.964;13.448;2022-08-05T18:54:59;11.70;;;1.90;;
29432;SDS011;16405;53.964;13.448;2022-08-05T18:57:28;10.13;;;1.52;;
29432;SDS011;16405;53.964;13.448;2022-08-05T18:59:55;7.68;;;1.60;;
29432;SDS011;16405;53.964;13.448;2022-08-05T19:02:21;6.32;;;1.40;;
29432;SDS011;16405;53.964;13.448;2022-08-05T19:04:48;9.40;;;1.42;;
29432;SDS011;16405;53.964;13.448;2022-08-05T19:07:14;8.70;;;1.40;;
29432;SDS011;16405;53.964;13.448;2022-08-05T19:09:45;12.68;;;1.85;;
29432;SDS011;16405;53.964;13.448;2022-08-05T19:12:11;11.68;;;1.90;;
29432;SDS011;16405;53.964;13.448;2022-08-05T19:17:03;16.33;;;1.83;;
29432;SDS011;16405;53.964;13.448;2022-08-05T19:21:55;16.23;;;1.73;;
29432;SDS011;16405;53.964;13.448;2022-08-05T19:26:49;5.65;;;1.90;;
29432;SDS011;16405;53.964;13.448;2022-08-05T19:29:15;6.88;;;1.80;;
29432;SDS011;16405;53.964;13.448;2022-08-05T19:34:15;16.08;;;2.17;;
29432;SDS011;16405;53.964;13.448;2022-08-05T19:36:50;10.45;;;2.00;;
29432;SDS011;16405;53.964;13.448;2022-08-05T19:39:18;8.00;;;2.00;;
29432;SDS011;16405;53.964;13.448;2022-08-05T19:41:44;7.43;;;2.10;;
29432;SDS011;16405;53.964;13.448;2022-08-05T19:44:13;15.65;;;2.10;;
29432;SDS011;16405;53.964;13.448;2022-08-05T19:46:42;10.32;;;1.80;;
29432;SDS011;16405;53.964;13.448;2022-08-05T19:49:11;13.70;;;1.90;;
29432;SDS011;16405;53.964;13.448;2022-08-05T19:51:37;17.23;;;2.45;;
29432;SDS011;16405;53.964;13.448;2022-08-05T19:54:03;9.70;;;2.03;;
29432;SDS011;16405;53.964;13.448;2022-08-05T19:56:32;12.65;;;1.98;;
29432;SDS011;16405;53.964;13.448;2022-08-05T20:01:34;15.63;;;2.00;;
29432;SDS011;16405;53.964;13.448;2022-08-05T20:06:31;16.63;;;2.20;;
29432;SDS011;16405;53.964;13.448;2022-08-05T20:08:57;17.73;;;2.90;;
29432;SDS011;16405;53.964;13.448;2022-08-05T20:11:39;13.10;;;2.38;;
29432;SDS011;16405;53.964;13.448;2022-08-05T20:14:08;18.58;;;2.67;;
29432;SDS011;16405;53.964;13.448;2022-08-05T20:16:44;8.25;;;2.70;;
29432;SDS011;16405;53.964;13.448;2022-08-05T20:19:16;12.52;;;2.50;;
29432;SDS011;16405;53.964;13.448;2022-08-05T20:21:45;14.77;;;3.00;;
29432;SDS011;16405;53.964;13.448;2022-08-05T20:24:11;9.32;;;2.70;;
29432;SDS011;16405;53.964;13.448;2022-08-05T20:26:39;8.98;;;2.97;;
29432;SDS011;16405;53.964;13.448;2022-08-05T20:29:05;8.05;;;2.92;;
29432;SDS011;16405;53.964;13.448;2022-08-05T20:31:36;4.32;;;2.53;;
29432;SDS011;16405;53.964;13.448;2022-08-05T20:34:02;12.45;;;2.60;;
29432;SDS011;16405;53.964;13.448;2022-08-05T20:36:31;18.95;;;2.88;;
29432;SDS011;16405;53.964;13.448;2022-08-05T20:39:00;14.18;;;2.83;;
29432;SDS011;16405;53.964;13.448;2022-08-05T20:41:28;18.83;;;2.90;;
29432;SDS011;16405;53.964;13.448;2022-08-05T20:43:57;19.80;;;3.70;;
29432;SDS011;16405;53.964;13.448;2022-08-05T20:46:23;17.70;;;3.58;;
29432;SDS011;16405;53.964;13.448;2022-08-05T20:48:59;18.45;;;3.00;;
29432;SDS011;16405;53.964;13.448;2022-08-05T20:51:40;19.67;;;2.80;;
29432;SDS011;16405;53.964;13.448;2022-08-05T20:54:06;15.40;;;3.50;;
29432;SDS011;16405;53.964;13.448;2022-08-05T20:56:40;12.40;;;2.90;;
29432;SDS011;16405;53.964;13.448;2022-08-05T20:59:09;13.50;;;3.30;;
29432;SDS011;16405;53.964;13.448;2022-08-05T21:01:38;20.17;;;3.03;;
29432;SDS011;16405;53.964;13.448;2022-08-05T21:04:09;17.45;;;3.45;;
29432;SDS011;16405;53.964;13.448;2022-08-05T21:06:38;23.75;;;4.88;;
29432;SDS011;16405;53.964;13.448;2022-08-05T21:09:04;20.67;;;4.65;;
29432;SDS011;16405;53.964;13.448;2022-08-05T21:11:39;15.65;;;3.65;;
29432;SDS011;16405;53.964;13.448;2022-08-05T21:14:08;12.60;;;3.70;;
29432;SDS011;16405;53.964;13.448;2022-08-05T21:16:41;18.33;;;3.80;;
29432;SDS011;16405;53.964;13.448;2022-08-05T21:19:10;14.05;;;4.38;;
29432;SDS011;16405;53.964;13.448;2022-08-05T21:21:37;7.28;;;4.20;;
29432;SDS011;16405;53.964;13.448;2022-08-05T21:24:03;12.00;;;4.13;;
29432;SDS011;16405;53.964;13.448;2022-08-05T21:26:35;16.02;;;4.25;;
29432;SDS011;16405;53.964;13.448;2022-08-05T21:29:04;18.02;;;7.10;;
29432;SDS011;16405;53.964;13.448;2022-08-05T21:31:36;10.00;;;4.60;;
29432;SDS011;16405;53.964;13.448;2022-08-05T21:34:04;16.33;;;5.78;;
29432;SDS011;16405;53.964;13.448;2022-08-05T21:36:43;13.18;;;4.65;;
29432;SDS011;16405;53.964;13.448;2022-08-05T21:39:12;12.07;;;4.75;;
29432;SDS011;16405;53.964;13.448;2022-08-05T21:41:41;29.85;;;5.50;;
29432;SDS011;16405;53.964;13.448;2022-08-05T21:44:12;12.32;;;5.85;;
29432;SDS011;16405;53.964;13.448;2022-08-05T21:46:38;13.75;;;5.85;;
29432;SDS011;16405;53.964;13.448;2022-08-05T21:49:04;11.95;;;4.05;;
29432;SDS011;16405;53.964;13.448;2022-08-05T21:54:09;14.27;;;6.47;;
29432;SDS011;16405;53.964;13.448;2022-08-05T21:56:35;19.63;;;7.40;;
29432;SDS011;16405;53.964;13.448;2022-08-05T21:59:06;23.52;;;8.15;;
29432;SDS011;16405;53.964;13.448;2022-08-05T22:01:31;24.25;;;8.48;;
29432;SDS011;16405;53.964;13.448;2022-08-05T22:06:23;21.48;;;7.68;;
29432;SDS011;16405;53.964;13.448;2022-08-05T22:08:49;14.45;;;7.05;;
29432;SDS011;16405;53.964;13.448;2022-08-05T22:11:19;22.17;;;6.93;;
29432;SDS011;16405;53.964;13.448;2022-08-05T22:13:46;19.42;;;7.13;;
29432;SDS011;16405;53.964;13.448;2022-08-05T22:16:12;16.25;;;7.10;;
29432;SDS011;16405;53.964;13.448;2022-08-05T22:18:39;26.63;;;7.88;;
29432;SDS011;16405;53.964;13.448;2022-08-05T22:21:05;31.10;;;8.27;;
29432;SDS011;16405;53.964;13.448;2022-08-05T22:23:32;33.35;;;7.65;;
29432;SDS011;16405;53.964;13.448;2022-08-05T22:26:19;24.38;;;7.25;;
29432;SDS011;16405;53.964;13.448;2022-08-05T22:29:04;19.08;;;6.30;;
29432;SDS011;16405;53.964;13.448;2022-08-05T22:31:30;29.98;;;7.88;;
29432;SDS011;16405;53.964;13.448;2022-08-05T22:34:03;30.63;;;8.65;;
29432;SDS011;16405;53.964;13.448;2022-08-05T22:36:29;27.00;;;8.02;;
29432;SDS011;16405;53.964;13.448;2022-08-05T22:41:20;35.20;;;8.20;;
29432;SDS011;16405;53.964;13.448;2022-08-05T22:43:46;27.15;;;8.90;;
29432;SDS011;16405;53.964;13.448;2022-08-05T22:48:40;23.55;;;8.10;;
29432;SDS011;16405;53.964;13.448;2022-08-05T22:51:06;23.17;;;8.38;;
29432;SDS011;16405;53.964;13.448;2022-08-05T22:53:33;31.55;;;9.00;;
29432;SDS011;16405;53.964;13.448;2022-08-05T22:55:58;30.08;;;8.65;;
29432;SDS011;16405;53.964;13.448;2022-08-05T23:00:50;19.23;;;8.13;;
29432;SDS011;16405;53.964;13.448;2022-08-05T23:03:19;23.88;;;8.60;;
29432;SDS011;16405;53.964;13.448;2022-08-05T23:05:45;23.77;;;8.52;;
29432;SDS011;16405;53.964;13.448;2022-08-05T23:08:11;26.83;;;8.25;;
29432;SDS011;16405;53.964;13.448;2022-08-05T23:13:03;26.20;;;8.10;;
29432;SDS011;16405;53.964;13.448;2022-08-05T23:15:29;26.25;;;7.03;;
29432;SDS011;16405;53.964;13.448;2022-08-05T23:17:57;14.43;;;6.53;;
29432;SDS011;16405;53.964;13.448;2022-08-05T23:20:25;24.25;;;7.07;;
29432;SDS011;16405;53.964;13.448;2022-08-05T23:22:51;21.85;;;6.93;;
29432;SDS011;16405;53.964;13.448;2022-08-05T23:27:43;16.65;;;6.10;;
29432;SDS011;16405;53.964;13.448;2022-08-05T23:32:44;15.55;;;5.90;;
29432;SDS011;16405;53.964;13.448;2022-08-05T23:35:10;24.17;;;6.10;;
29432;SDS011;16405;53.964;13.448;2022-08-05T23:37:36;18.67;;;5.68;;
29432;SDS011;16405;53.964;13.448;2022-08-05T23:40:02;21.17;;;5.00;;
29432;SDS011;16405;53.964;13.448;2022-08-05T23:42:36;21.77;;;5.22;;
29432;SDS011;16405;53.964;13.448;2022-08-05T23:45:05;13.68;;;4.90;;
29432;SDS011;16405;53.964;13.448;2022-08-05T23:47:32;12.32;;;3.80;;